TimeCDT,TemperatureF,Dew PointF,Humidity,Sea Level PressureIn,VisibilityMPH,Wind Direction,Wind SpeedMPH,Gust SpeedMPH,PrecipitationIn,Events,Conditions,WindDirDegrees,DateUTC
12:15 AM,55.4,41.0,58,29.70,10.0,NE,16.1,20.7,N/A,,Scattered Clouds,50,2012-10-04 05:15:00
12:35 AM,55.4,41.0,58,29.69,10.0,NE,16.1,21.9,N/A,,Scattered Clouds,50,2012-10-04 05:35:00
12:55 AM,55.4,41.0,58,29.68,10.0,NE,13.8,18.4,N/A,,Scattered Clouds,50,2012-10-04 05:55:00
1:15 AM,55.4,41.0,58,29.68,10.0,NE,11.5,18.4,N/A,,Scattered Clouds,50,2012-10-04 06:15:00
1:35 AM,53.6,41.0,62,29.68,10.0,NNE,6.9,-,N/A,,Clear,30,2012-10-04 06:35:00
1:55 AM,51.8,42.8,71,29.68,10.0,North,15.0,-,N/A,,Clear,350,2012-10-04 06:55:00
2:15 AM,51.8,42.8,71,29.69,10.0,NW,13.8,-,N/A,,Clear,320,2012-10-04 07:15:00
2:35 AM,48.2,41.0,76,29.70,10.0,NW,21.9,-,N/A,,Clear,310,2012-10-04 07:35:00
2:55 AM,44.6,41.0,87,29.70,10.0,NW,21.9,31.1,N/A,,Clear,320,2012-10-04 07:55:00
3:15 AM,42.8,39.2,87,29.72,10.0,NW,21.9,31.1,N/A,,Clear,310,2012-10-04 08:15:00
3:35 AM,42.8,37.4,81,29.74,10.0,WNW,23.0,28.8,N/A,,Mostly Cloudy,300,2012-10-04 08:35:00
3:55 AM,42.8,37.4,81,29.76,10.0,WNW,26.5,33.4,N/A,,Overcast,300,2012-10-04 08:55:00
4:15 AM,42.8,37.4,81,29.78,10.0,WNW,28.8,34.5,N/A,,Overcast,300,2012-10-04 09:15:00
4:35 AM,42.8,37.4,81,29.79,10.0,WNW,26.5,35.7,N/A,,Overcast,300,2012-10-04 09:35:00
4:55 AM,41.0,37.4,87,29.81,5.0,WNW,25.3,35.7,N/A,,Light Drizzle,300,2012-10-04 09:55:00
5:15 AM,37.4,37.4,100,29.82,4.0,NW,25.3,35.7,N/A,,Drizzle,310,2012-10-04 10:15:00
5:35 AM,35.6,35.6,100,29.84,4.0,WNW,27.6,40.3,N/A,,Light Drizzle,300,2012-10-04 10:35:00
5:55 AM,33.8,33.8,100,29.86,4.0,WNW,27.6,39.1,N/A,,Overcast,300,2012-10-04 10:55:00
6:15 AM,33.8,32.0,93,29.86,7.0,NW,25.3,38.0,N/A,,Overcast,310,2012-10-04 11:15:00
6:35 AM,33.8,32.0,93,29.87,7.0,NW,28.8,41.4,N/A,,Overcast,310,2012-10-04 11:35:00
6:55 AM,33.8,32.0,93,29.88,7.0,NW,27.6,40.3,N/A,,Overcast,320,2012-10-04 11:55:00
7:15 AM,33.8,33.8,100,29.89,7.0,NW,24.2,40.3,N/A,,Overcast,320,2012-10-04 12:15:00
7:35 AM,33.8,32.0,93,29.91,10.0,WNW,20.7,33.4,N/A,,Overcast,300,2012-10-04 12:35:00
7:55 AM,33.8,32.0,93,29.92,7.0,WNW,24.2,34.5,N/A,Rain,Light Rain,300,2012-10-04 12:55:00
8:15 AM,33.8,32.0,93,29.94,1.5,WNW,23.0,31.1,N/A,,Overcast,300,2012-10-04 13:15:00
8:35 AM,33.8,32.0,93,29.95,1.8,WNW,23.0,33.4,N/A,,Light Drizzle,300,2012-10-04 13:35:00
8:55 AM,33.8,32.0,93,29.96,5.0,NW,27.6,38.0,N/A,,Light Drizzle,310,2012-10-04 13:55:00
9:15 AM,33.8,32.0,93,29.98,7.0,WNW,25.3,33.4,N/A,,Light Drizzle,300,2012-10-04 14:15:00
9:35 AM,33.8,33.8,100,29.99,10.0,NW,26.5,34.5,N/A,Rain,Light Rain,310,2012-10-04 14:35:00
9:55 AM,35.6,33.8,93,29.99,10.0,NW,25.3,38.0,N/A,,Overcast,310,2012-10-04 14:55:00
10:15 AM,35.6,33.8,93,30.00,10.0,NW,31.1,40.3,N/A,,Overcast,320,2012-10-04 15:15:00
10:35 AM,35.6,32.0,87,30.02,10.0,NW,23.0,36.8,N/A,,Overcast,310,2012-10-04 15:35:00
10:55 AM,35.6,32.0,87,30.02,10.0,NW,27.6,38.0,N/A,,Overcast,310,2012-10-04 15:55:00
11:35 AM,37.4,32.0,81,30.04,10.0,NW,31.1,35.7,N/A,,Overcast,310,2012-10-04 16:35:00
11:55 AM,37.4,32.0,81,30.05,7.0,NW,26.5,40.3,N/A,,Overcast,310,2012-10-04 16:55:00
12:15 PM,37.4,32.0,81,30.06,10.0,NW,26.5,36.8,N/A,,Overcast,310,2012-10-04 17:15:00
12:35 PM,37.4,32.0,81,30.06,10.0,NW,25.3,36.8,N/A,,Overcast,310,2012-10-04 17:35:00
12:55 PM,39.2,32.0,75,30.07,10.0,NW,28.8,38.0,N/A,,Overcast,310,2012-10-04 17:55:00
1:15 PM,39.2,32.0,75,30.08,10.0,NW,31.1,38.0,N/A,,Overcast,310,2012-10-04 18:15:00
1:35 PM,39.2,32.0,75,30.08,10.0,NW,29.9,36.8,N/A,,Overcast,310,2012-10-04 18:35:00
1:55 PM,39.2,32.0,75,30.09,10.0,NW,26.5,36.8,N/A,,Overcast,310,2012-10-04 18:55:00
2:15 PM,41.0,32.0,70,30.09,10.0,NW,26.5,34.5,N/A,,Overcast,310,2012-10-04 19:15:00
2:35 PM,41.0,32.0,70,30.10,10.0,WNW,23.0,35.7,N/A,,Overcast,300,2012-10-04 19:35:00
2:55 PM,41.0,32.0,70,30.11,10.0,NW,27.6,31.1,N/A,,Overcast,310,2012-10-04 19:55:00
3:15 PM,41.0,32.0,70,30.11,10.0,NW,26.5,35.7,N/A,,Overcast,310,2012-10-04 20:15:00
3:35 PM,41.0,32.0,70,30.12,10.0,WNW,26.5,32.2,N/A,,Overcast,300,2012-10-04 20:35:00
3:55 PM,39.2,32.0,75,30.13,10.0,NW,23.0,34.5,N/A,,Overcast,310,2012-10-04 20:55:00
4:15 PM,39.2,32.0,75,30.13,10.0,NW,25.3,33.4,N/A,,Overcast,310,2012-10-04 21:15:00
4:35 PM,39.2,32.0,75,30.14,10.0,NW,21.9,29.9,N/A,,Overcast,310,2012-10-04 21:35:00
4:55 PM,39.2,32.0,75,30.13,7.0,NW,19.6,27.6,N/A,,Overcast,310,2012-10-04 21:55:00
5:15 PM,41.0,32.0,70,30.13,10.0,NW,19.6,31.1,N/A,,Overcast,310,2012-10-04 22:15:00
5:35 PM,39.2,32.0,75,30.14,7.0,NW,18.4,32.2,N/A,,Overcast,310,2012-10-04 22:35:00
5:55 PM,41.0,32.0,70,30.15,10.0,NW,20.7,24.2,N/A,,Overcast,310,2012-10-04 22:55:00
6:15 PM,41.0,32.0,70,30.15,10.0,NW,18.4,27.6,N/A,,Overcast,320,2012-10-04 23:15:00
6:35 PM,41.0,32.0,70,30.15,10.0,NW,21.9,31.1,N/A,,Overcast,320,2012-10-04 23:35:00
6:55 PM,37.4,33.8,87,30.16,7.0,NW,21.9,27.6,N/A,,Overcast,310,2012-10-04 23:55:00
7:15 PM,39.2,32.0,75,30.16,10.0,WNW,16.1,24.2,N/A,,Overcast,300,2012-10-05 00:15:00
7:35 PM,37.4,32.0,81,30.16,10.0,NW,17.3,23.0,N/A,,Overcast,310,2012-10-05 00:35:00
8:15 PM,37.4,32.0,81,30.17,10.0,NW,19.6,26.5,N/A,,Overcast,310,2012-10-05 01:15:00
8:35 PM,37.4,32.0,81,30.17,10.0,NW,17.3,26.5,N/A,,Overcast,310,2012-10-05 01:35:00
8:55 PM,37.4,32.0,81,30.17,10.0,WNW,18.4,-,N/A,,Overcast,300,2012-10-05 01:55:00
9:15 PM,37.4,32.0,81,30.18,10.0,WNW,17.3,26.5,N/A,,Overcast,300,2012-10-05 02:15:00
9:35 PM,37.4,32.0,81,30.18,10.0,WNW,15.0,21.9,N/A,,Overcast,300,2012-10-05 02:35:00
9:55 PM,37.4,32.0,81,30.19,10.0,WNW,15.0,-,N/A,,Overcast,300,2012-10-05 02:55:00
10:15 PM,37.4,32.0,81,30.19,10.0,NW,19.6,-,N/A,,Overcast,310,2012-10-05 03:15:00
10:35 PM,37.4,32.0,81,30.19,10.0,NW,17.3,27.6,N/A,,Overcast,310,2012-10-05 03:35:00
10:55 PM,37.4,32.0,81,30.19,10.0,NW,16.1,27.6,N/A,,Overcast,310,2012-10-05 03:55:00
11:15 PM,37.4,32.0,81,30.19,10.0,NW,19.6,26.5,N/A,,Overcast,310,2012-10-05 04:15:00
11:35 PM,37.4,30.2,75,30.19,10.0,WNW,18.4,25.3,N/A,,Overcast,300,2012-10-05 04:35:00
11:55 PM,37.4,28.4,70,30.19,10.0,NW,18.4,28.8,N/A,,Overcast,310,2012-10-05 04:55:00